createdAt,value
2018-08-04T00:00:42.642Z,24.47
2018-08-04T00:01:42.827Z,24.45
2018-08-04T00:02:43.020Z,24.45
2018-08-04T00:03:43.192Z,24.45
2018-08-04T00:04:43.379Z,24.43
2018-08-04T00:05:43.570Z,24.40
2018-08-04T00:06:43.773Z,24.33
2018-08-04T00:07:43.936Z,24.40
2018-08-04T00:08:44.103Z,24.29
2018-08-04T00:09:44.290Z,24.26
2018-08-04T00:10:44.468Z,24.26
2018-08-04T00:11:44.695Z,24.13
2018-08-04T00:12:44.825Z,24.13
2018-08-04T00:13:45.000Z,24.33
2018-08-04T00:14:45.188Z,24.35
2018-08-04T00:15:45.365Z,24.33
2018-08-04T00:16:45.544Z,24.36
2018-08-04T00:17:45.729Z,24.29
2018-08-04T00:18:45.920Z,24.30
2018-08-04T00:19:46.105Z,24.11
2018-08-04T00:20:46.284Z,24.24
2018-08-04T00:21:46.460Z,24.13
2018-08-04T00:22:46.633Z,24.02
2018-08-04T00:23:46.807Z,24.01
2018-08-04T00:24:46.993Z,24.03
2018-08-04T00:25:47.172Z,23.99
2018-08-04T00:26:47.352Z,23.92
2018-08-04T00:27:47.543Z,23.96
2018-08-04T00:28:47.730Z,23.98
2018-08-04T00:29:47.915Z,23.96
2018-08-04T00:30:48.098Z,23.92
2018-08-04T00:31:48.269Z,23.81
2018-08-04T00:32:48.454Z,23.99
2018-08-04T00:33:48.631Z,23.87
2018-08-04T00:34:48.823Z,23.92
2018-08-04T00:35:49.012Z,23.93
2018-08-04T00:36:49.195Z,23.99
2018-08-04T00:37:49.417Z,23.98
2018-08-04T00:38:49.541Z,24.01
2018-08-04T00:39:49.728Z,23.95
2018-08-04T00:40:49.902Z,23.80
2018-08-04T00:41:50.087Z,23.83
2018-08-04T00:42:50.274Z,23.83
2018-08-04T00:43:50.461Z,23.81
2018-08-04T00:44:50.642Z,23.80
2018-08-04T00:45:50.817Z,23.91
2018-08-04T00:46:50.994Z,23.86
2018-08-04T00:47:51.179Z,23.95
2018-08-04T00:48:51.361Z,23.98
2018-08-04T00:49:51.542Z,24.08
2018-08-04T00:50:51.713Z,23.98
2018-08-04T00:51:51.894Z,24.01
2018-08-04T00:52:52.093Z,24.03
2018-08-04T00:53:52.268Z,23.92
2018-08-04T00:54:52.463Z,23.86
2018-08-04T00:55:52.642Z,23.83
2018-08-04T00:56:52.826Z,23.83
2018-08-04T00:57:53.001Z,23.80
2018-08-04T00:58:53.172Z,23.74
2018-08-04T00:59:53.354Z,23.68
2018-08-04T01:00:53.530Z,23.69
2018-08-04T01:01:53.716Z,23.71
2018-08-04T01:02:53.897Z,23.71
2018-08-04T01:03:54.070Z,23.77
2018-08-04T01:04:54.249Z,23.74
2018-08-04T01:05:54.429Z,23.74
2018-08-04T01:06:54.609Z,23.81
2018-08-04T01:07:54.796Z,23.71
2018-08-04T01:08:54.977Z,23.62
2018-08-04T01:09:55.162Z,23.61
2018-08-04T01:10:55.345Z,23.48
2018-08-04T01:11:55.515Z,23.58
2018-08-04T01:12:55.694Z,23.47
2018-08-04T01:13:55.871Z,23.40
2018-08-04T01:14:56.046Z,23.27
2018-08-04T01:15:56.225Z,23.21
2018-08-04T01:16:56.397Z,23.36
2018-08-04T01:17:56.577Z,23.47
2018-08-04T01:18:56.749Z,23.55
2018-08-04T01:19:56.928Z,23.41
2018-08-04T01:20:57.105Z,23.31
2018-08-04T01:21:57.286Z,23.34
2018-08-04T01:22:57.476Z,23.47
2018-08-04T01:23:57.645Z,23.32
2018-08-04T01:24:57.821Z,23.36
2018-08-04T01:25:58.003Z,23.34
2018-08-04T01:26:58.181Z,23.32
2018-08-04T01:27:58.365Z,23.34
2018-08-04T01:28:58.546Z,23.32
2018-08-04T01:29:58.721Z,23.34
2018-08-04T01:30:58.905Z,23.25
2018-08-04T01:31:59.086Z,23.31
2018-08-04T01:32:59.268Z,23.39
2018-08-04T01:33:59.443Z,23.28
2018-08-04T01:34:59.621Z,23.28
2018-08-04T01:35:59.810Z,23.21
2018-08-04T01:37:00.016Z,23.12
2018-08-04T01:38:00.191Z,23.17
2018-08-04T01:39:00.374Z,23.12
2018-08-04T01:40:00.563Z,23.10
2018-08-04T01:41:00.755Z,23.00
2018-08-04T01:42:00.926Z,23.12
2018-08-04T01:43:01.109Z,23.12
2018-08-04T01:44:01.296Z,23.05
2018-08-04T01:45:01.511Z,22.98
2018-08-04T01:46:01.667Z,23.02
2018-08-04T01:47:01.848Z,23.15
2018-08-04T01:48:02.024Z,23.12
2018-08-04T01:49:02.199Z,23.20
2018-08-04T01:50:02.380Z,23.17
2018-08-04T01:51:02.563Z,23.23
2018-08-04T01:52:02.739Z,23.09
2018-08-04T01:53:02.918Z,23.21
2018-08-04T01:54:03.103Z,23.12
2018-08-04T01:55:03.284Z,23.10
2018-08-04T01:56:03.461Z,23.10
2018-08-04T01:57:03.644Z,23.03
2018-08-04T01:58:03.823Z,22.99
2018-08-04T01:59:04.016Z,23.09
2018-08-04T02:00:04.187Z,22.99
2018-08-04T02:01:04.361Z,22.96
2018-08-04T02:02:04.539Z,23.00
2018-08-04T02:03:04.725Z,22.90
2018-08-04T02:04:04.909Z,22.83
2018-08-04T02:05:05.084Z,22.90
2018-08-04T02:06:05.273Z,22.87
2018-08-04T02:07:05.448Z,22.91
2018-08-04T02:08:05.625Z,22.84
2018-08-04T02:09:05.806Z,22.73
2018-08-04T02:10:05.987Z,22.65
2018-08-04T02:11:06.179Z,22.69
2018-08-04T02:12:06.358Z,22.75
2018-08-04T02:13:06.533Z,22.80
2018-08-04T02:14:06.708Z,22.69
2018-08-04T02:15:06.888Z,22.70
2018-08-04T02:16:07.070Z,22.68
2018-08-04T02:17:07.248Z,22.60
2018-08-04T02:18:07.430Z,22.59
2018-08-04T02:19:07.627Z,22.60
2018-08-04T02:20:07.824Z,22.65
2018-08-04T02:21:08.012Z,22.68
2018-08-04T02:22:08.198Z,22.60
2018-08-04T02:23:08.377Z,22.69
2018-08-04T02:24:08.557Z,22.70
2018-08-04T02:25:08.738Z,22.53
2018-08-04T02:26:08.911Z,22.70
2018-08-04T02:27:09.092Z,22.59
2018-08-04T02:28:09.282Z,22.57
2018-08-04T02:29:09.457Z,22.53
2018-08-04T02:30:09.637Z,22.59
2018-08-04T02:31:09.817Z,22.53
2018-08-04T02:32:09.988Z,22.53
2018-08-04T02:33:10.171Z,22.50
2018-08-04T02:34:10.354Z,22.59
2018-08-04T02:35:10.549Z,22.53
2018-08-04T02:36:10.719Z,22.57
2018-08-04T02:37:10.900Z,22.54
2018-08-04T02:38:11.089Z,22.63
2018-08-04T02:39:11.274Z,22.53
2018-08-04T02:40:11.460Z,22.55
2018-08-04T02:41:11.643Z,22.63
2018-08-04T02:42:11.824Z,22.54
2018-08-04T02:43:12.024Z,22.50
2018-08-04T02:44:12.214Z,22.60
2018-08-04T02:45:12.388Z,22.55
2018-08-04T02:46:12.568Z,22.53
2018-08-04T02:47:12.766Z,22.54
2018-08-04T02:48:12.944Z,22.47
2018-08-04T02:49:13.133Z,22.30
2018-08-04T02:50:13.307Z,22.35
2018-08-04T02:51:13.487Z,22.39
2018-08-04T02:52:13.671Z,22.33
2018-08-04T02:53:13.866Z,22.25
2018-08-04T02:54:14.049Z,22.25
2018-08-04T02:55:14.224Z,22.14
2018-08-04T02:56:14.410Z,22.18
2018-08-04T02:57:14.592Z,22.11
2018-08-04T02:58:14.775Z,22.13
2018-08-04T02:59:14.957Z,22.11
2018-08-04T03:00:15.124Z,22.06
2018-08-04T03:01:15.309Z,22.00
2018-08-04T03:02:15.482Z,22.00
2018-08-04T03:03:15.655Z,21.96
2018-08-04T03:04:16.444Z,21.96
2018-08-04T03:05:15.999Z,21.93
2018-08-04T03:06:16.182Z,21.93
2018-08-04T03:07:16.359Z,21.98
2018-08-04T03:08:16.537Z,21.92
2018-08-04T03:09:16.716Z,21.93
2018-08-04T03:10:16.901Z,21.92
2018-08-04T03:11:17.089Z,21.76
2018-08-04T03:12:17.276Z,21.80
2018-08-04T03:13:17.459Z,21.79
2018-08-04T03:14:17.638Z,21.83
2018-08-04T03:15:17.817Z,21.79
2018-08-04T03:16:18.002Z,21.83
2018-08-04T03:17:18.175Z,21.76
2018-08-04T03:18:18.360Z,21.69
2018-08-04T03:19:18.548Z,21.67
2018-08-04T03:20:18.736Z,21.69
2018-08-04T03:21:18.909Z,21.82
2018-08-04T03:22:19.086Z,21.70
2018-08-04T03:23:19.265Z,21.72
2018-08-04T03:24:19.445Z,21.80
2018-08-04T03:25:19.625Z,21.76
2018-08-04T03:26:19.803Z,21.80
2018-08-04T03:27:19.987Z,21.77
2018-08-04T03:28:20.165Z,21.70
2018-08-04T03:29:20.341Z,21.72
2018-08-04T03:30:20.519Z,21.80
2018-08-04T03:31:20.694Z,21.77
2018-08-04T03:32:20.868Z,21.75
2018-08-04T03:33:21.055Z,21.91
2018-08-04T03:34:21.244Z,21.83
2018-08-04T03:35:21.438Z,21.72
2018-08-04T03:36:21.625Z,21.76
2018-08-04T03:37:21.788Z,21.88
2018-08-04T03:38:21.971Z,21.83
2018-08-04T03:39:22.159Z,21.92
2018-08-04T03:40:22.333Z,21.89
2018-08-04T03:41:22.515Z,21.89
2018-08-04T03:42:22.694Z,21.88
2018-08-04T03:43:22.885Z,21.85
2018-08-04T03:44:23.056Z,21.88
2018-08-04T03:45:23.241Z,21.80
2018-08-04T03:46:23.424Z,21.72
2018-08-04T03:47:23.605Z,21.61
2018-08-04T03:48:23.788Z,21.61
2018-08-04T03:49:23.974Z,21.57
2018-08-04T03:50:24.151Z,21.60
2018-08-04T03:51:24.338Z,21.70
2018-08-04T03:52:24.527Z,21.79
2018-08-04T03:53:24.716Z,21.70
2018-08-04T03:54:24.902Z,21.76
2018-08-04T03:55:25.083Z,21.89
2018-08-04T03:56:25.274Z,21.83
2018-08-04T03:57:25.450Z,21.83
2018-08-04T03:58:25.630Z,21.76
2018-08-04T03:59:25.800Z,21.64
2018-08-04T04:00:25.984Z,21.58
2018-08-04T04:01:26.167Z,21.52
2018-08-04T04:02:26.358Z,21.55
2018-08-04T04:03:26.553Z,21.43
2018-08-04T04:04:26.780Z,21.55
2018-08-04T04:05:26.931Z,21.61
2018-08-04T04:06:27.123Z,21.72
2018-08-04T04:07:27.297Z,21.67
2018-08-04T04:08:27.474Z,21.75
2018-08-04T04:09:27.646Z,21.76
2018-08-04T04:10:27.823Z,21.80
2018-08-04T04:11:28.004Z,21.80
2018-08-04T04:12:28.177Z,21.79
2018-08-04T04:13:28.360Z,21.77
2018-08-04T04:14:28.539Z,21.89
2018-08-04T04:15:28.716Z,21.85
2018-08-04T04:16:28.898Z,21.64
2018-08-04T04:17:29.075Z,21.75
2018-08-04T04:18:29.260Z,21.70
2018-08-04T04:19:29.441Z,21.82
2018-08-04T04:20:29.627Z,21.98
2018-08-04T04:21:29.804Z,22.00
2018-08-04T04:22:29.981Z,21.96
2018-08-04T04:23:30.168Z,21.92
2018-08-04T04:24:30.566Z,21.89
2018-08-04T04:25:31.069Z,21.88
2018-08-04T04:26:30.897Z,21.89
2018-08-04T04:27:30.772Z,21.79
2018-08-04T04:28:30.943Z,21.80
2018-08-04T04:29:31.125Z,21.72
2018-08-04T04:30:31.303Z,21.79
2018-08-04T04:31:31.476Z,21.72
2018-08-04T04:32:31.662Z,21.72
2018-08-04T04:33:31.853Z,21.73
2018-08-04T04:34:32.032Z,21.83
2018-08-04T04:35:32.211Z,21.83
2018-08-04T04:36:32.390Z,21.79
2018-08-04T04:37:32.571Z,21.69
2018-08-04T04:38:32.767Z,21.83
2018-08-04T04:39:32.933Z,21.91
2018-08-04T04:40:33.137Z,21.83
2018-08-04T04:41:33.316Z,21.95
2018-08-04T04:42:33.505Z,21.91
2018-08-04T04:43:33.690Z,21.75
2018-08-04T04:44:33.883Z,21.75
2018-08-04T04:45:34.060Z,21.75
2018-08-04T04:46:34.242Z,21.76
2018-08-04T04:47:34.611Z,21.82
2018-08-04T04:48:34.549Z,21.69
2018-08-04T04:49:34.728Z,21.83
2018-08-04T04:50:34.916Z,21.76
2018-08-04T04:51:35.088Z,21.73
2018-08-04T04:52:35.291Z,21.82
2018-08-04T04:53:35.485Z,21.66
2018-08-04T04:54:35.665Z,21.79
2018-08-04T04:55:35.838Z,21.73
2018-08-04T04:56:36.018Z,21.82
2018-08-04T04:57:36.201Z,21.88
2018-08-04T04:58:36.419Z,21.91
2018-08-04T04:59:36.605Z,21.96
2018-08-04T05:00:36.792Z,21.93
2018-08-04T05:01:36.972Z,21.99
2018-08-04T05:02:37.154Z,22.00
2018-08-04T05:03:37.329Z,21.92
2018-08-04T05:04:37.508Z,21.99
2018-08-04T05:05:37.689Z,22.00
2018-08-04T05:06:37.866Z,22.15
2018-08-04T05:07:38.091Z,22.08
2018-08-04T05:08:38.290Z,22.10
2018-08-04T05:09:38.448Z,22.17
2018-08-04T05:10:38.633Z,22.18
2018-08-04T05:11:38.898Z,22.20
2018-08-04T05:12:38.953Z,22.29
2018-08-04T05:13:39.163Z,22.32
2018-08-04T05:14:39.351Z,22.32
2018-08-04T05:15:39.547Z,22.48
2018-08-04T05:16:39.756Z,22.57
2018-08-04T05:17:39.960Z,22.50
2018-08-04T05:18:40.029Z,22.45
2018-08-04T05:19:40.212Z,22.57
2018-08-04T05:20:40.393Z,22.66
2018-08-04T05:21:40.624Z,22.72
2018-08-04T05:22:40.760Z,22.75
2018-08-04T05:23:40.950Z,22.73
2018-08-04T05:24:41.120Z,22.73
2018-08-04T05:25:41.307Z,22.62
2018-08-04T05:26:41.495Z,22.75
2018-08-04T05:27:41.671Z,22.94
2018-08-04T05:28:47.082Z,22.93
2018-08-04T05:29:45.192Z,23.08
2018-08-04T05:30:43.549Z,23.09
2018-08-04T05:31:44.739Z,23.27
2018-08-04T05:32:42.520Z,23.39
2018-08-04T05:33:42.694Z,23.40
2018-08-04T05:34:42.872Z,23.48
2018-08-04T05:35:43.071Z,23.48
2018-08-04T05:36:43.248Z,23.58
2018-08-04T05:37:43.436Z,23.65
2018-08-04T05:38:43.614Z,23.74
2018-08-04T05:39:43.793Z,23.69
2018-08-04T05:40:43.976Z,23.81
2018-08-04T05:41:44.377Z,23.77
2018-08-04T05:42:44.612Z,23.87
2018-08-04T05:43:44.567Z,23.92
2018-08-04T05:44:44.913Z,23.98
2018-08-04T05:45:45.232Z,24.06
2018-08-04T05:46:45.291Z,24.10
2018-08-04T05:47:45.262Z,24.14
2018-08-04T05:48:45.606Z,24.06
2018-08-04T05:49:45.767Z,24.02
2018-08-04T05:50:45.974Z,24.20
2018-08-04T05:51:46.154Z,24.29
2018-08-04T05:52:46.232Z,24.42
2018-08-04T05:53:46.504Z,24.40
2018-08-04T05:54:46.674Z,24.55
2018-08-04T05:55:46.856Z,24.68
2018-08-04T05:56:46.950Z,24.70
2018-08-04T05:57:47.181Z,24.77
2018-08-04T05:58:47.338Z,24.81
2018-08-04T05:59:47.489Z,24.99
2018-08-04T06:00:47.833Z,24.99
2018-08-04T06:01:47.825Z,24.96
2018-08-04T06:02:48.048Z,25.17
2018-08-04T06:03:48.201Z,25.08
2018-08-04T06:04:48.237Z,25.26
2018-08-04T06:05:48.428Z,25.21
2018-08-04T06:06:48.833Z,25.16
2018-08-04T06:07:49.084Z,25.35
2018-08-04T06:08:49.189Z,25.44
2018-08-04T06:09:49.503Z,25.51
2018-08-04T06:10:49.585Z,25.51
2018-08-04T06:11:49.770Z,25.62
2018-08-04T06:12:50.008Z,25.75
2018-08-04T06:13:50.232Z,25.95
2018-08-04T06:14:50.460Z,26.02
2018-08-04T06:15:50.526Z,26.02
2018-08-04T06:16:50.722Z,26.13
2018-08-04T06:17:50.899Z,26.26
2018-08-04T06:18:51.074Z,26.21
2018-08-04T06:19:51.251Z,26.28
2018-08-04T06:20:51.415Z,26.29
2018-08-04T06:21:51.665Z,26.28
2018-08-04T06:22:51.722Z,26.45
2018-08-04T06:23:51.975Z,26.56
2018-08-04T06:24:51.797Z,26.70
2018-08-04T06:25:52.255Z,26.71
2018-08-04T06:26:52.337Z,26.78
2018-08-04T06:27:54.700Z,26.95
2018-08-04T06:28:52.734Z,27.10
2018-08-04T06:29:52.803Z,27.20
2018-08-04T06:30:53.093Z,27.27
2018-08-04T06:31:53.036Z,27.42
2018-08-04T06:32:53.360Z,27.44
2018-08-04T06:33:53.382Z,27.60
2018-08-04T06:34:53.775Z,27.48
2018-08-04T06:35:54.053Z,27.60
2018-08-04T06:36:54.067Z,27.59
2018-08-04T06:37:54.375Z,27.77
2018-08-04T06:38:54.566Z,27.93
2018-08-04T06:39:54.652Z,27.74
2018-08-04T06:40:54.798Z,27.73
2018-08-04T06:41:54.867Z,27.75
2018-08-04T06:42:55.184Z,27.96
2018-08-04T06:43:55.361Z,28.05
2018-08-04T06:44:55.202Z,28.27
2018-08-04T06:45:55.745Z,28.30
2018-08-04T06:46:55.755Z,28.33
2018-08-04T06:47:55.944Z,28.27
2018-08-04T06:48:57.030Z,28.52
2018-08-04T06:49:56.313Z,28.49
2018-08-04T06:50:56.436Z,28.56
2018-08-04T06:51:56.603Z,28.60
2018-08-04T06:52:56.865Z,28.74
2018-08-04T06:53:57.040Z,28.79
2018-08-04T06:54:57.228Z,28.72
2018-08-04T06:55:57.643Z,28.81
2018-08-04T06:56:57.501Z,29.04
2018-08-04T06:57:58.361Z,29.20
2018-08-04T06:58:57.885Z,29.41
2018-08-04T06:59:58.386Z,29.39
2018-08-04T07:00:57.978Z,29.63
2018-08-04T07:01:58.210Z,29.73
2018-08-04T07:02:58.650Z,29.72
2018-08-04T07:03:58.779Z,29.84
2018-08-04T07:04:59.006Z,29.76
2018-08-04T07:05:59.161Z,29.61
2018-08-04T07:06:59.318Z,29.86
2018-08-04T07:07:59.486Z,29.88
2018-08-04T07:08:59.672Z,30.08
2018-08-04T07:09:59.943Z,30.25
2018-08-04T07:11:01.137Z,30.32
2018-08-04T07:12:00.261Z,30.59
2018-08-04T07:13:00.379Z,30.55
2018-08-04T07:14:00.651Z,30.78
2018-08-04T07:15:00.746Z,30.80
2018-08-04T07:16:00.810Z,30.73
2018-08-04T07:17:01.109Z,30.84
2018-08-04T07:18:01.240Z,30.75
2018-08-04T07:19:01.223Z,30.40
2018-08-04T07:20:01.631Z,30.61
2018-08-04T07:21:01.793Z,30.63
2018-08-04T07:22:01.996Z,30.77
2018-08-04T07:23:02.237Z,31.17
2018-08-04T07:24:02.295Z,31.56
2018-08-04T07:25:02.523Z,32.01
2018-08-04T07:26:02.633Z,32.29
2018-08-04T07:27:03.058Z,32.65
2018-08-04T07:28:03.534Z,32.86
2018-08-04T07:29:03.194Z,33.22
2018-08-04T07:30:03.312Z,33.58
2018-08-04T07:31:03.621Z,33.96
2018-08-04T07:32:03.698Z,34.16
2018-08-04T07:33:03.800Z,34.60
2018-08-04T07:34:04.156Z,34.86
2018-08-04T07:35:04.022Z,35.22
2018-08-04T07:36:04.334Z,35.46
2018-08-04T07:37:04.330Z,35.52
2018-08-04T07:38:04.688Z,35.80
2018-08-04T07:39:04.912Z,36.05
2018-08-04T07:40:05.156Z,36.14
2018-08-04T07:41:05.362Z,36.25
2018-08-04T07:42:05.573Z,36.52
2018-08-04T07:43:05.605Z,36.43
2018-08-04T07:44:05.727Z,36.54
2018-08-04T07:45:05.920Z,36.65
2018-08-04T07:46:06.088Z,36.93
2018-08-04T07:47:06.288Z,37.13
2018-08-04T07:48:06.616Z,37.20
2018-08-04T07:49:07.974Z,37.21
2018-08-04T07:50:07.078Z,37.51
2018-08-04T07:51:07.126Z,37.59
2018-08-04T07:52:07.325Z,37.59
2018-08-04T07:53:07.588Z,37.90
2018-08-04T07:54:08.139Z,38.01
2018-08-04T07:55:08.153Z,38.26
2018-08-04T07:56:08.203Z,38.36
2018-08-04T07:57:09.748Z,38.48
2018-08-04T07:58:08.630Z,38.58
2018-08-04T07:59:08.831Z,38.55
2018-08-04T08:00:11.889Z,38.69
2018-08-04T08:01:09.214Z,38.99
2018-08-04T08:02:12.055Z,38.86
2018-08-04T08:03:10.867Z,38.09
2018-08-04T08:04:11.679Z,38.17
2018-08-04T08:05:11.303Z,38.50
2018-08-04T08:06:11.130Z,38.74
2018-08-04T08:07:10.351Z,39.07
2018-08-04T08:08:10.418Z,39.14
2018-08-04T08:09:12.183Z,39.37
2018-08-04T08:10:10.956Z,39.22
2018-08-04T08:11:11.751Z,39.37
2018-08-04T08:12:11.263Z,39.30
2018-08-04T08:13:11.319Z,39.36
2018-08-04T08:14:11.447Z,39.30
2018-08-04T08:15:11.602Z,39.33
2018-08-04T08:16:13.075Z,39.29
2018-08-04T08:17:11.952Z,39.37
2018-08-04T08:18:11.967Z,39.26
2018-08-04T08:19:12.132Z,39.17
2018-08-04T08:20:12.440Z,38.92
2018-08-04T08:21:12.471Z,39.09
2018-08-04T08:22:12.690Z,38.97
2018-08-04T08:23:12.696Z,39.22
2018-08-04T08:24:12.899Z,39.25
2018-08-04T08:25:13.379Z,39.26
2018-08-04T08:26:13.293Z,39.31
2018-08-04T08:27:13.445Z,39.43
2018-08-04T08:28:13.598Z,39.72
2018-08-04T08:29:13.807Z,39.92
2018-08-04T08:30:14.159Z,40.09
2018-08-04T08:31:14.380Z,40.05
2018-08-04T08:32:14.408Z,40.20
2018-08-04T08:33:14.651Z,40.33
2018-08-04T08:34:14.796Z,40.44
2018-08-04T08:35:15.005Z,40.69
2018-08-04T08:36:15.251Z,40.84
2018-08-04T08:37:15.502Z,40.96
2018-08-04T08:38:15.527Z,41.06
2018-08-04T08:39:15.902Z,41.07
2018-08-04T08:40:15.721Z,41.24
2018-08-04T08:41:16.029Z,41.28
2018-08-04T08:42:17.001Z,41.45
2018-08-04T08:43:16.396Z,41.59
2018-08-04T08:44:16.625Z,41.77
2018-08-04T08:45:16.699Z,41.55
2018-08-04T08:46:16.886Z,41.40
2018-08-04T08:47:17.051Z,41.37
2018-08-04T08:48:17.194Z,41.60
2018-08-04T08:49:17.499Z,41.74
2018-08-04T08:50:17.853Z,41.82
2018-08-04T08:51:17.987Z,41.91
2018-08-04T08:52:18.136Z,42.01
2018-08-04T08:53:17.978Z,41.74
2018-08-04T08:54:18.296Z,41.57
2018-08-04T08:55:18.590Z,41.85
2018-08-04T08:56:18.432Z,42.02
2018-08-04T08:57:18.478Z,41.94
2018-08-04T08:58:18.862Z,42.45
2018-08-04T08:59:18.856Z,42.79
2018-08-04T09:00:19.241Z,43.13
2018-08-04T09:01:19.524Z,43.28
2018-08-04T09:02:19.721Z,43.43
2018-08-04T09:03:19.994Z,43.76
2018-08-04T09:04:19.974Z,43.83
2018-08-04T09:05:20.285Z,43.65
2018-08-04T09:06:20.583Z,43.60
2018-08-04T09:07:20.532Z,43.24
2018-08-04T09:08:20.798Z,42.69
2018-08-04T09:09:20.795Z,42.47
2018-08-04T09:10:20.959Z,42.07
2018-08-04T09:11:21.143Z,41.22
2018-08-04T09:12:21.541Z,40.81
2018-08-04T09:13:21.327Z,41.14
2018-08-04T09:14:21.735Z,41.57
2018-08-04T09:15:21.874Z,41.82
2018-08-04T09:16:22.309Z,41.40
2018-08-04T09:17:22.600Z,41.14
2018-08-04T09:18:22.520Z,41.03
2018-08-04T09:19:22.609Z,40.63
2018-08-04T09:20:22.698Z,40.26
2018-08-04T09:21:23.149Z,40.16
2018-08-04T09:22:23.225Z,39.83
2018-08-04T09:23:23.216Z,39.53
2018-08-04T09:24:23.591Z,39.19
2018-08-04T09:25:23.799Z,39.02
2018-08-04T09:26:24.084Z,38.99
2018-08-04T09:27:24.302Z,38.96
2018-08-04T09:28:24.274Z,39.07
2018-08-04T09:29:24.737Z,39.02
2018-08-04T09:30:24.567Z,39.30
2018-08-04T09:31:25.262Z,39.63
2018-08-04T09:32:25.221Z,39.90
2018-08-04T09:33:25.517Z,39.70
2018-08-04T09:34:25.583Z,39.56
2018-08-04T09:35:25.686Z,39.52
2018-08-04T09:36:25.625Z,39.41
2018-08-04T09:37:26.043Z,39.67
2018-08-04T09:38:26.189Z,39.67
2018-08-04T09:39:26.255Z,39.72
2018-08-04T09:40:26.703Z,39.94
2018-08-04T09:41:26.720Z,40.34
2018-08-04T09:42:26.955Z,40.56
2018-08-04T09:43:27.108Z,40.72
2018-08-04T09:44:27.386Z,40.97
2018-08-04T09:45:27.476Z,41.00
2018-08-04T09:46:27.708Z,41.12
2018-08-04T09:47:28.047Z,40.88
2018-08-04T09:48:28.127Z,41.28
2018-08-04T09:49:28.292Z,41.29
2018-08-04T09:50:29.152Z,41.24
2018-08-04T09:51:28.646Z,41.04
2018-08-04T09:52:28.847Z,41.15
2018-08-04T09:53:29.130Z,41.04
2018-08-04T09:54:28.970Z,40.88
2018-08-04T09:55:29.369Z,40.96
2018-08-04T09:56:29.532Z,41.07
2018-08-04T09:57:29.749Z,40.80
2018-08-04T09:58:29.968Z,40.62
2018-08-04T09:59:30.057Z,40.38
2018-08-04T10:00:30.106Z,40.11
2018-08-04T10:01:30.393Z,40.47
2018-08-04T10:02:30.841Z,41.47
2018-08-04T10:03:30.822Z,42.36
2018-08-04T10:04:31.046Z,42.86
2018-08-04T10:05:31.157Z,43.68
2018-08-04T10:06:31.411Z,44.24
2018-08-04T10:07:31.652Z,44.76
2018-08-04T10:08:31.766Z,44.78
2018-08-04T10:09:32.396Z,44.26
2018-08-04T10:10:32.009Z,43.58
2018-08-04T10:11:32.549Z,43.13
2018-08-04T10:12:32.602Z,42.36
2018-08-04T10:13:32.470Z,41.57
2018-08-04T10:14:32.936Z,41.03
2018-08-04T10:15:33.091Z,40.77
2018-08-04T10:16:33.272Z,40.30
2018-08-04T10:17:33.592Z,40.18
2018-08-04T10:18:33.780Z,40.11
2018-08-04T10:19:33.828Z,39.96
2018-08-04T10:20:34.080Z,39.71
2018-08-04T10:21:34.134Z,39.48
2018-08-04T10:22:34.395Z,39.21
2018-08-04T10:23:34.445Z,38.99
2018-08-04T10:24:34.816Z,38.86
2018-08-04T10:25:34.931Z,39.07
2018-08-04T10:26:35.244Z,39.21
2018-08-04T10:27:35.104Z,39.06
2018-08-04T10:28:35.388Z,38.87
2018-08-04T10:29:35.707Z,38.73
2018-08-04T10:30:35.970Z,38.57
2018-08-04T10:31:35.904Z,38.24
2018-08-04T10:32:36.346Z,37.99
2018-08-04T10:33:36.528Z,37.83
2018-08-04T10:34:36.744Z,37.63
2018-08-04T10:35:36.742Z,37.42
2018-08-04T10:36:37.211Z,37.01
2018-08-04T10:37:37.334Z,36.84
2018-08-04T10:38:37.493Z,36.80
2018-08-04T10:39:37.663Z,36.65
2018-08-04T10:40:37.515Z,36.54
2018-08-04T10:41:37.906Z,36.55
2018-08-04T10:42:38.347Z,36.28
2018-08-04T10:43:38.193Z,36.30
2018-08-04T10:44:38.348Z,36.21
2018-08-04T10:45:38.410Z,36.24
2018-08-04T10:46:38.810Z,36.24
2018-08-04T10:47:39.046Z,36.04
2018-08-04T10:48:39.503Z,36.12
2018-08-04T10:49:39.495Z,35.98
2018-08-04T10:50:39.643Z,36.07
2018-08-04T10:51:40.627Z,36.02
2018-08-04T10:52:41.230Z,35.89
2018-08-04T10:53:42.548Z,35.80
2018-08-04T10:54:41.527Z,35.85
2018-08-04T10:55:40.851Z,35.86
2018-08-04T10:56:40.895Z,35.86
2018-08-04T10:57:41.312Z,35.97
2018-08-04T10:58:41.198Z,35.83
2018-08-04T10:59:41.294Z,35.90
2018-08-04T11:00:41.677Z,35.92
2018-08-04T11:01:42.075Z,35.86
2018-08-04T11:02:41.999Z,35.90
2018-08-04T11:03:42.120Z,35.89
2018-08-04T11:04:42.239Z,35.97
2018-08-04T11:05:42.234Z,36.09
2018-08-04T11:06:42.780Z,36.23
2018-08-04T11:07:42.841Z,36.27
2018-08-04T11:08:42.885Z,36.58
2018-08-04T11:09:42.911Z,36.83
2018-08-04T11:10:43.097Z,36.86
2018-08-04T11:11:43.335Z,36.93
2018-08-04T11:12:43.504Z,37.17
2018-08-04T11:13:43.677Z,37.32
2018-08-04T11:14:43.856Z,37.44
2018-08-04T11:15:44.064Z,37.65
2018-08-04T11:16:44.298Z,38.11
2018-08-04T11:17:44.483Z,38.15
2018-08-04T11:18:44.678Z,38.15
2018-08-04T11:19:44.887Z,38.19
2018-08-04T11:20:45.159Z,38.12
2018-08-04T11:21:45.227Z,38.62
2018-08-04T11:22:45.417Z,39.29
2018-08-04T11:23:45.599Z,39.68
2018-08-04T11:24:45.796Z,39.85
2018-08-04T11:25:45.996Z,39.78
2018-08-04T11:26:46.303Z,39.63
2018-08-04T11:27:46.374Z,39.51
2018-08-04T11:28:46.566Z,39.51
2018-08-04T11:29:46.793Z,39.43
2018-08-04T11:30:46.949Z,39.14
2018-08-04T11:31:47.134Z,39.02
2018-08-04T11:32:47.323Z,39.15
2018-08-04T11:33:47.544Z,39.06
2018-08-04T11:34:47.735Z,39.03
2018-08-04T11:35:47.926Z,39.00
2018-08-04T11:36:48.149Z,38.86
2018-08-04T11:37:48.360Z,38.74
2018-08-04T11:38:48.507Z,38.60
2018-08-04T11:39:50.946Z,38.49
2018-08-04T11:40:49.191Z,38.39
2018-08-04T11:41:49.971Z,38.12
2018-08-04T11:42:49.291Z,38.12
2018-08-04T11:43:49.487Z,38.02
2018-08-04T11:44:49.897Z,38.08
2018-08-04T11:45:49.906Z,38.17
2018-08-04T11:46:50.115Z,38.19
2018-08-04T11:47:50.380Z,38.26
2018-08-04T11:48:50.317Z,38.30
2018-08-04T11:49:50.526Z,38.50
2018-08-04T11:50:52.847Z,38.61
2018-08-04T11:51:50.911Z,38.96
2018-08-04T11:52:51.084Z,39.22
2018-08-04T11:53:51.450Z,39.52
2018-08-04T11:54:51.510Z,39.59
2018-08-04T11:55:51.707Z,39.55
2018-08-04T11:56:51.905Z,39.67
2018-08-04T11:57:52.091Z,39.92
2018-08-04T11:58:52.282Z,39.99
2018-08-04T11:59:52.473Z,40.09
2018-08-04T12:00:52.686Z,40.16
2018-08-04T12:01:52.911Z,40.27
2018-08-04T12:02:53.085Z,40.20
2018-08-04T12:03:53.303Z,40.02
2018-08-04T12:04:53.496Z,40.00
2018-08-04T12:05:53.691Z,39.94
2018-08-04T12:06:53.920Z,39.83
2018-08-04T12:07:54.083Z,39.81
2018-08-04T12:08:54.282Z,39.87
2018-08-04T12:09:54.478Z,39.51
2018-08-04T12:10:54.678Z,39.44
2018-08-04T12:11:54.990Z,39.46
2018-08-04T12:12:55.113Z,39.29
2018-08-04T12:13:55.240Z,39.29
2018-08-04T12:14:55.426Z,39.21
2018-08-04T12:15:55.619Z,39.24
2018-08-04T12:16:55.808Z,39.22
2018-08-04T12:17:56.055Z,39.15
2018-08-04T12:18:56.243Z,39.21
2018-08-04T12:19:56.487Z,39.19
2018-08-04T12:20:56.642Z,38.99
2018-08-04T12:21:56.930Z,38.95
2018-08-04T12:22:57.199Z,38.84
2018-08-04T12:23:58.892Z,38.58
2018-08-04T12:24:57.923Z,38.55
2018-08-04T12:25:57.565Z,38.42
2018-08-04T12:26:57.846Z,38.46
2018-08-04T12:27:57.944Z,38.30
2018-08-04T12:28:58.080Z,38.20
2018-08-04T12:29:58.066Z,38.09
2018-08-04T12:30:58.303Z,38.11
2018-08-04T12:31:58.438Z,37.99
2018-08-04T12:32:59.679Z,37.92
2018-08-04T12:33:58.975Z,37.87
2018-08-04T12:34:58.987Z,37.78
2018-08-04T12:35:59.937Z,37.67
2018-08-04T12:36:59.401Z,37.70
2018-08-04T12:37:59.596Z,37.78
2018-08-04T12:38:59.785Z,37.65
2018-08-04T12:40:00.003Z,37.67
2018-08-04T12:41:00.195Z,37.64
2018-08-04T12:42:00.404Z,37.75
2018-08-04T12:43:00.598Z,37.71
2018-08-04T12:44:00.767Z,37.70
2018-08-04T12:45:00.964Z,37.58
2018-08-04T12:46:01.165Z,37.59
2018-08-04T12:47:01.340Z,37.58
2018-08-04T12:48:01.533Z,37.63
2018-08-04T12:49:01.716Z,37.67
2018-08-04T12:50:01.903Z,37.56
2018-08-04T12:51:02.145Z,37.55
2018-08-04T12:52:02.211Z,37.51
2018-08-04T12:53:02.847Z,37.70
2018-08-04T12:54:02.562Z,37.55
2018-08-04T12:55:02.752Z,37.60